createdAt,value
2022-09-07T00:02:48.752Z,73.98
2022-09-07T00:05:46.305Z,74.08
2022-09-07T00:08:44.497Z,74.14
2022-09-07T00:11:41.970Z,74.12
2022-09-07T00:14:39.464Z,74.21
2022-09-07T00:17:36.949Z,74.32
2022-09-07T00:20:34.444Z,74.38
2022-09-07T00:23:31.925Z,74.38
2022-09-07T00:26:29.375Z,74.42
2022-09-07T00:29:26.855Z,74.50
2022-09-07T00:32:24.338Z,74.57
2022-09-07T00:35:21.854Z,74.67
2022-09-07T00:38:19.340Z,74.74
2022-09-07T00:41:16.838Z,74.81
2022-09-07T00:44:14.321Z,74.88
2022-09-07T00:47:11.789Z,74.96
2022-09-07T00:50:09.532Z,75.02
2022-09-07T00:53:07.079Z,75.10
2022-09-07T00:56:04.631Z,75.17
2022-09-07T00:59:02.371Z,75.32
2022-09-07T01:01:59.873Z,75.45
2022-09-07T01:04:57.446Z,75.56
2022-09-07T01:07:57.010Z,75.66
2022-09-07T01:10:54.512Z,75.77
2022-09-07T01:13:52.011Z,75.85
2022-09-07T01:16:49.500Z,75.90
2022-09-07T01:19:47.004Z,75.97
2022-09-07T01:22:44.532Z,76.07
2022-09-07T01:25:41.984Z,76.16
2022-09-07T01:28:39.659Z,76.32
2022-09-07T01:31:37.222Z,76.40
2022-09-07T01:34:34.740Z,76.47
2022-09-07T01:37:32.205Z,76.57
2022-09-07T01:40:29.701Z,76.60
2022-09-07T01:43:27.706Z,76.65
2022-09-07T01:46:25.184Z,76.68
2022-09-07T01:49:22.726Z,76.69
2022-09-07T01:52:20.191Z,76.70
2022-09-07T01:55:17.686Z,76.73
2022-09-07T01:58:15.153Z,76.77
2022-09-07T02:01:12.697Z,76.82
2022-09-07T02:04:10.474Z,76.87
2022-09-07T02:07:07.955Z,76.90
2022-09-07T02:10:05.453Z,76.99
2022-09-07T02:13:03.215Z,77.04
2022-09-07T02:16:00.776Z,77.15
2022-09-07T02:18:58.427Z,77.28
2022-09-07T02:21:55.932Z,77.37
2022-09-07T02:24:53.389Z,77.39
2022-09-07T02:27:50.860Z,77.39
2022-09-07T02:30:48.373Z,77.41
2022-09-07T02:33:45.904Z,77.42
2022-09-07T02:36:43.407Z,77.40
2022-09-07T02:39:40.961Z,77.43
2022-09-07T02:42:38.483Z,77.49
2022-09-07T02:45:35.941Z,77.50
2022-09-07T02:48:33.419Z,77.53
2022-09-07T02:51:30.913Z,77.59
2022-09-07T02:54:28.384Z,77.65
2022-09-07T02:57:25.907Z,77.73
2022-09-07T03:00:26.422Z,77.80
2022-09-07T03:03:24.008Z,77.88
2022-09-07T03:06:21.467Z,77.97
2022-09-07T03:09:18.939Z,78.00
2022-09-07T03:12:16.484Z,78.00
2022-09-07T03:15:14.006Z,78.00
2022-09-07T03:18:12.568Z,78.03
2022-09-07T03:21:10.053Z,78.13
2022-09-07T03:24:07.538Z,78.20
2022-09-07T03:27:05.061Z,78.21
2022-09-07T03:30:02.526Z,78.28
2022-09-07T03:33:00.005Z,78.34
2022-09-07T03:35:57.602Z,78.40
2022-09-07T03:38:55.100Z,78.41
2022-09-07T03:41:52.886Z,78.49
2022-09-07T03:44:50.664Z,78.53
2022-09-07T03:47:49.330Z,78.61
2022-09-07T03:50:46.863Z,78.66
2022-09-07T03:53:44.350Z,78.70
2022-09-07T03:56:41.841Z,78.70
2022-09-07T03:59:39.299Z,78.79
2022-09-07T04:02:36.812Z,78.84
2022-09-07T04:05:34.309Z,78.90
2022-09-07T04:08:31.960Z,78.93
2022-09-07T04:11:29.565Z,78.98
2022-09-07T04:14:27.038Z,79.05
2022-09-07T04:17:24.533Z,79.12
2022-09-07T04:20:22.011Z,79.21
2022-09-07T04:23:19.502Z,79.25
2022-09-07T04:26:16.953Z,79.28
2022-09-07T04:29:14.449Z,79.31
2022-09-07T04:32:15.626Z,79.38
2022-09-07T04:35:13.472Z,79.44
2022-09-07T04:38:11.003Z,79.50
2022-09-07T04:41:09.517Z,79.50
2022-09-07T04:44:07.502Z,79.50
2022-09-07T04:47:05.008Z,79.50
2022-09-07T04:50:02.740Z,79.54
2022-09-07T04:53:00.227Z,79.62
2022-09-07T04:55:57.713Z,79.66
2022-09-07T04:58:55.203Z,79.63
2022-09-07T05:01:52.755Z,79.69
2022-09-07T05:04:50.298Z,79.76
2022-09-07T05:07:47.794Z,79.82
2022-09-07T05:10:45.286Z,79.88
2022-09-07T05:13:42.778Z,79.82
2022-09-07T05:16:40.296Z,79.83
2022-09-07T05:19:37.837Z,79.84
2022-09-07T05:22:35.724Z,79.88
2022-09-07T05:25:33.341Z,79.87
2022-09-07T05:28:31.228Z,79.93
2022-09-07T05:31:28.946Z,80.09
2022-09-07T05:37:28.782Z,80.32
2022-09-07T05:40:26.263Z,80.40
2022-09-07T05:43:24.050Z,80.40
2022-09-07T05:46:21.579Z,80.40
2022-09-07T05:49:19.114Z,80.38
2022-09-07T05:52:16.591Z,80.23
2022-09-07T05:55:29.445Z,80.04
2022-09-07T05:58:28.121Z,79.84
2022-09-07T06:01:25.670Z,79.63
2022-09-07T06:04:23.175Z,79.32
2022-09-07T06:07:22.448Z,78.88
2022-09-07T06:13:38.513Z,78.17
2022-09-07T06:16:36.029Z,77.85
2022-09-07T06:19:33.547Z,77.61
2022-09-07T06:22:31.460Z,77.42
2022-09-07T06:25:28.994Z,77.28
2022-09-07T06:28:26.465Z,77.06
2022-09-07T06:31:24.129Z,76.79
2022-09-07T06:34:23.090Z,76.33
2022-09-07T06:37:20.569Z,75.89
2022-09-07T06:40:18.058Z,75.24
2022-09-07T06:43:15.521Z,74.53
2022-09-07T06:49:30.430Z,73.01
2022-09-07T06:52:28.279Z,72.30
2022-09-07T06:55:25.896Z,71.39
2022-09-07T06:58:24.926Z,70.53
2022-09-07T07:01:22.493Z,69.69
2022-09-07T07:04:19.970Z,68.98
2022-09-07T07:07:17.462Z,68.10
2022-09-07T07:10:14.961Z,66.94
2022-09-07T07:13:12.447Z,66.04
2022-09-07T07:16:09.947Z,64.78
2022-09-07T07:19:07.459Z,63.96
2022-09-07T07:22:18.711Z,63.65
2022-09-07T07:25:22.422Z,63.22
2022-09-07T07:31:37.369Z,62.46
2022-09-07T07:34:34.866Z,62.13
2022-09-07T07:37:32.445Z,61.42
2022-09-07T07:40:31.864Z,61.14
2022-09-07T07:43:30.939Z,60.41
2022-09-07T07:46:28.707Z,59.86
2022-09-07T07:49:26.221Z,59.32
2022-09-07T07:55:43.860Z,57.30
2022-09-07T07:58:41.722Z,56.17
2022-09-07T08:01:39.239Z,55.54
2022-09-07T08:04:37.003Z,54.39
2022-09-07T08:07:34.461Z,53.46
2022-09-07T08:10:31.885Z,53.11
2022-09-07T08:13:29.444Z,52.59
2022-09-07T08:16:27.020Z,51.47
2022-09-07T08:19:24.652Z,50.01
2022-09-07T08:22:22.083Z,49.68
2022-09-07T08:25:19.800Z,49.07
2022-09-07T08:28:17.247Z,48.06
2022-09-07T08:31:14.776Z,47.47
2022-09-07T08:34:12.256Z,46.97
2022-09-07T08:37:09.702Z,46.63
2022-09-07T08:40:07.295Z,45.90
2022-09-07T08:43:05.008Z,45.67
2022-09-07T08:46:02.433Z,45.40
2022-09-07T08:48:59.886Z,44.34
2022-09-07T08:51:57.304Z,43.87
2022-09-07T08:54:54.800Z,43.72
2022-09-07T08:57:52.286Z,43.28
2022-09-07T09:00:50.254Z,42.84
2022-09-07T09:07:05.317Z,41.74
2022-09-07T09:10:02.891Z,41.55
2022-09-07T09:13:01.580Z,40.78
2022-09-07T09:15:59.102Z,40.82
2022-09-07T09:18:56.597Z,40.31
2022-09-07T09:21:54.034Z,40.16
2022-09-07T09:24:51.506Z,39.72
2022-09-07T09:27:48.995Z,39.39
2022-09-07T09:30:47.933Z,39.08
2022-09-07T09:33:45.794Z,38.76
2022-09-07T09:36:43.243Z,38.63
2022-09-07T09:39:42.764Z,38.30
2022-09-07T09:42:40.878Z,37.64
2022-09-07T09:48:55.708Z,37.15
2022-09-07T09:55:33.335Z,36.86
2022-09-07T10:05:03.251Z,36.24
2022-09-07T10:08:00.678Z,35.92
2022-09-07T10:10:58.111Z,35.47
2022-09-07T10:13:55.964Z,35.17
2022-09-07T10:16:53.399Z,35.11
2022-09-07T10:19:50.891Z,34.69
2022-09-07T10:22:51.434Z,34.09
2022-09-07T10:25:49.112Z,33.98
2022-09-07T10:32:03.939Z,33.18
2022-09-07T10:35:01.361Z,32.73
2022-09-07T10:37:58.805Z,32.54
2022-09-07T10:40:56.237Z,32.28
2022-09-07T10:43:53.797Z,31.72
2022-09-07T10:46:58.580Z,31.57
2022-09-07T10:53:39.613Z,31.55
2022-09-07T10:56:31.063Z,31.38
2022-09-07T11:00:07.501Z,31.23
2022-09-07T11:03:24.841Z,30.73
2022-09-07T11:06:04.471Z,30.52
2022-09-07T11:09:18.058Z,30.33
2022-09-07T11:12:16.162Z,30.06
2022-09-07T11:15:13.589Z,29.48
2022-09-07T11:18:11.030Z,29.30
2022-09-07T11:21:08.486Z,29.22
2022-09-07T11:24:09.364Z,29.03
2022-09-07T11:27:06.825Z,28.73
2022-09-07T11:30:05.145Z,28.45
2022-09-07T11:33:02.608Z,28.03
2022-09-07T11:36:02.300Z,27.79
2022-09-07T11:39:00.037Z,27.50
2022-09-07T11:41:57.714Z,27.42
2022-09-07T11:44:55.330Z,27.20
2022-09-07T11:47:52.786Z,27.12
2022-09-07T11:50:50.283Z,26.79
2022-09-07T11:53:47.729Z,26.61
2022-09-07T11:56:45.574Z,26.09
2022-09-07T11:59:43.423Z,26.17
2022-09-07T12:02:58.410Z,26.24
2022-09-07T12:05:57.125Z,26.37
2022-09-07T12:08:54.571Z,26.17
2022-09-07T12:11:52.029Z,25.72
2022-09-07T12:14:50.533Z,25.90
2022-09-07T12:17:47.979Z,25.98
2022-09-07T12:20:45.410Z,26.06
2022-09-07T12:23:42.851Z,26.67
2022-09-07T12:26:40.275Z,27.09
2022-09-07T12:29:37.714Z,27.77
2022-09-07T12:35:52.551Z,28.48
2022-09-07T12:38:50.148Z,28.86
2022-09-07T12:41:47.895Z,29.27
2022-09-07T12:44:45.602Z,29.50
2022-09-07T12:47:43.044Z,29.57
2022-09-07T12:50:42.279Z,29.61
2022-09-07T12:53:39.997Z,29.78
2022-09-07T12:56:37.426Z,30.00
2022-09-07T12:59:34.864Z,30.00
2022-09-07T13:02:32.413Z,30.36
2022-09-07T13:05:30.668Z,30.65
2022-09-07T13:08:28.217Z,30.66
2022-09-07T13:11:25.668Z,30.55
2022-09-07T13:14:23.373Z,30.95
2022-09-07T13:17:20.950Z,31.00
2022-09-07T13:20:18.470Z,30.82
2022-09-07T13:23:15.906Z,30.88
2022-09-07T13:26:13.331Z,31.23
2022-09-07T13:29:10.785Z,31.36
2022-09-07T13:32:08.232Z,31.53
2022-09-07T13:35:05.683Z,31.45
2022-09-07T13:38:03.114Z,31.44
2022-09-07T13:41:00.537Z,31.41
2022-09-07T13:43:58.485Z,31.73
2022-09-07T13:46:55.911Z,31.89
2022-09-07T13:49:55.903Z,32.38
2022-09-07T13:52:53.890Z,32.53
2022-09-07T13:55:51.324Z,32.63
2022-09-07T13:58:48.771Z,32.57
2022-09-07T14:01:46.280Z,32.48
2022-09-07T14:04:44.409Z,32.38
2022-09-07T14:07:41.838Z,32.49
2022-09-07T14:10:39.264Z,32.54
2022-09-07T14:13:36.712Z,32.69
2022-09-07T14:16:34.356Z,32.89
2022-09-07T14:19:31.812Z,33.22
2022-09-07T14:22:29.250Z,33.42
2022-09-07T14:25:26.973Z,33.38
2022-09-07T14:28:24.732Z,33.42
2022-09-07T14:31:22.252Z,33.68
2022-09-07T14:34:19.743Z,33.76
2022-09-07T14:37:17.160Z,33.93
2022-09-07T14:40:14.691Z,33.72
2022-09-07T14:43:12.161Z,33.64
2022-09-07T14:46:09.654Z,33.81
2022-09-07T14:49:08.000Z,33.57
2022-09-07T14:52:05.632Z,33.63
2022-09-07T14:55:03.053Z,34.00
2022-09-07T14:58:04.207Z,34.14
2022-09-07T15:04:22.442Z,34.62
2022-09-07T15:07:20.038Z,34.88
2022-09-07T15:10:17.482Z,35.41
2022-09-07T15:13:14.930Z,35.95
2022-09-07T15:16:13.283Z,36.52
2022-09-07T15:19:10.809Z,36.92
2022-09-07T15:22:08.295Z,37.13
2022-09-07T15:25:05.772Z,37.20
2022-09-07T15:28:03.191Z,37.74
2022-09-07T15:34:18.227Z,38.40
2022-09-07T15:40:33.752Z,39.42
2022-09-07T15:43:31.384Z,39.66
2022-09-07T15:46:29.055Z,40.15
2022-09-07T15:49:28.043Z,40.51
2022-09-07T15:52:25.804Z,40.76
2022-09-07T15:55:24.506Z,41.16
2022-09-07T15:58:21.915Z,41.41
2022-09-07T16:04:38.795Z,42.10
2022-09-07T16:10:55.320Z,42.58
2022-09-07T16:13:53.446Z,42.69
2022-09-07T16:20:08.384Z,43.21
2022-09-07T16:23:13.981Z,43.63
2022-09-07T16:26:12.385Z,43.72
2022-09-07T16:29:10.480Z,44.01
2022-09-07T16:35:25.303Z,44.63
2022-09-07T16:41:40.183Z,44.96
2022-09-07T16:44:37.628Z,45.12
2022-09-07T16:47:35.062Z,45.33
2022-09-07T16:50:32.524Z,45.59
2022-09-07T16:53:29.974Z,45.78
2022-09-07T16:56:27.415Z,46.02
2022-09-07T16:59:26.871Z,46.29
2022-09-07T17:02:24.315Z,46.41
2022-09-07T17:05:21.810Z,46.59
2022-09-07T17:08:19.237Z,47.09
2022-09-07T17:11:17.180Z,47.38
2022-09-07T17:14:14.666Z,47.58
2022-09-07T17:17:12.093Z,47.92
2022-09-07T17:20:09.530Z,48.28
2022-09-07T17:23:07.009Z,48.77
2022-09-07T17:26:04.430Z,49.31
2022-09-07T17:29:01.866Z,49.84
2022-09-07T17:35:17.755Z,50.83
2022-09-07T17:41:32.669Z,51.67
2022-09-07T17:44:35.844Z,51.96
2022-09-07T17:47:35.456Z,52.33
2022-09-07T17:50:32.986Z,52.62
2022-09-07T17:53:30.528Z,53.06
2022-09-07T17:56:28.041Z,53.45
2022-09-07T18:02:43.217Z,54.13
2022-09-07T18:05:41.036Z,54.44
2022-09-07T18:08:38.868Z,54.75
2022-09-07T18:11:45.855Z,55.12
2022-09-07T18:14:44.830Z,55.42
2022-09-07T18:17:42.551Z,55.82
2022-09-07T18:20:40.405Z,56.10
2022-09-07T18:23:38.261Z,56.52
2022-09-07T18:26:36.130Z,56.92
2022-09-07T18:29:34.557Z,57.26
2022-09-07T18:32:32.201Z,57.54
2022-09-07T18:35:30.035Z,57.79
2022-09-07T18:38:27.924Z,58.15
2022-09-07T18:41:25.769Z,58.47
2022-09-07T18:47:47.519Z,59.19
2022-09-07T18:50:45.559Z,59.43
2022-09-07T18:53:43.924Z,59.76
2022-09-07T18:56:41.830Z,60.08
2022-09-07T18:59:40.985Z,60.36
2022-09-07T19:02:39.121Z,60.68
2022-09-07T19:05:53.112Z,60.84
2022-09-07T19:08:51.315Z,61.10
2022-09-07T19:11:49.959Z,61.37
2022-09-07T19:14:47.854Z,61.64
2022-09-07T19:17:45.805Z,61.90
2022-09-07T19:20:44.172Z,62.14
2022-09-07T19:23:42.075Z,62.29
2022-09-07T19:26:40.253Z,62.54
2022-09-07T19:29:38.166Z,62.74
2022-09-07T19:32:35.957Z,63.02
2022-09-07T19:35:34.138Z,63.20
2022-09-07T19:38:32.189Z,63.47
2022-09-07T19:41:30.150Z,63.65
2022-09-07T19:44:28.536Z,63.82
2022-09-07T19:47:26.449Z,64.05
2022-09-07T19:50:24.367Z,64.28
2022-09-07T19:53:23.601Z,64.58
2022-09-07T19:56:22.582Z,64.75
2022-09-07T19:59:20.766Z,64.99
2022-09-07T20:02:18.717Z,65.23
2022-09-07T20:05:16.713Z,65.54
2022-09-07T20:08:14.611Z,65.82
2022-09-07T20:11:12.435Z,66.03
2022-09-07T20:14:10.264Z,66.19
2022-09-07T20:17:08.128Z,66.42
2022-09-07T20:20:06.405Z,66.61
2022-09-07T20:23:04.096Z,66.85
2022-09-07T20:26:01.967Z,67.04
2022-09-07T20:29:16.754Z,67.19
2022-09-07T20:32:18.052Z,67.38
2022-09-07T20:35:15.631Z,67.60
2022-09-07T20:38:13.195Z,67.78
2022-09-07T20:41:10.650Z,67.90
2022-09-07T20:44:08.065Z,68.06
2022-09-07T20:47:05.722Z,68.17
2022-09-07T20:50:03.244Z,68.31
2022-09-07T20:53:00.690Z,68.51
2022-09-07T20:55:58.137Z,68.73
2022-09-07T20:58:55.576Z,68.93
2022-09-07T21:01:53.057Z,69.16
2022-09-07T21:04:50.535Z,69.45
2022-09-07T21:07:47.982Z,69.70
2022-09-07T21:10:45.413Z,69.91
2022-09-07T21:13:42.887Z,70.18
2022-09-07T21:16:40.462Z,70.39
2022-09-07T21:19:37.993Z,70.60
2022-09-07T21:22:35.434Z,70.78
2022-09-07T21:25:32.871Z,70.82
2022-09-07T21:28:30.331Z,71.00
2022-09-07T21:31:27.826Z,71.15
2022-09-07T21:34:25.339Z,71.28
2022-09-07T21:37:22.799Z,71.44
2022-09-07T21:40:20.232Z,71.56
2022-09-07T21:43:17.665Z,71.68
2022-09-07T21:46:15.824Z,71.83
2022-09-07T21:49:13.280Z,71.91
2022-09-07T21:52:10.709Z,72.10
2022-09-07T21:55:08.153Z,72.15
2022-09-07T21:58:05.746Z,72.22
2022-09-07T22:01:03.460Z,72.44
2022-09-07T22:04:00.928Z,72.65
2022-09-07T22:06:58.349Z,72.91
2022-09-07T22:09:55.786Z,73.06
2022-09-07T22:12:53.272Z,73.20
2022-09-07T22:15:50.750Z,73.26
2022-09-07T22:18:48.220Z,73.37
2022-09-07T22:21:45.633Z,73.53
2022-09-07T22:24:43.089Z,73.68
2022-09-07T22:27:40.522Z,73.87
2022-09-07T22:30:37.966Z,73.98
2022-09-07T22:33:35.391Z,74.10
2022-09-07T22:36:32.933Z,74.17
2022-09-07T22:39:30.400Z,74.27
2022-09-07T22:42:27.833Z,74.44
2022-09-07T22:45:25.264Z,74.55
2022-09-07T22:48:23.217Z,74.61
2022-09-07T22:51:20.624Z,74.63
2022-09-07T22:54:18.070Z,74.72
2022-09-07T22:57:15.522Z,74.78
2022-09-07T23:00:13.275Z,74.87
2022-09-07T23:03:10.788Z,74.96
2022-09-07T23:06:08.913Z,75.03
2022-09-07T23:09:06.862Z,75.09
2022-09-07T23:12:04.638Z,75.10
2022-09-07T23:15:02.080Z,75.17
2022-09-07T23:17:59.519Z,75.30
2022-09-07T23:21:00.282Z,75.41
2022-09-07T23:23:58.114Z,75.51
2022-09-07T23:26:55.567Z,75.60
2022-09-07T23:29:53.000Z,75.68
2022-09-07T23:32:50.445Z,75.75
2022-09-07T23:35:47.962Z,75.85
2022-09-07T23:38:45.451Z,75.92
2022-09-07T23:41:42.890Z,76.03
2022-09-07T23:44:40.327Z,76.16
2022-09-07T23:47:37.758Z,76.26
2022-09-07T23:50:35.461Z,76.34
2022-09-07T23:53:33.018Z,76.44
2022-09-07T23:56:31.322Z,76.51
2022-09-07T23:59:28.779Z,76.58
